createdAt,value
2023-05-06T00:01:45.688Z,35.57
2023-05-06T00:04:12.372Z,35.55
2023-05-06T00:06:38.847Z,35.41
2023-05-06T00:09:05.446Z,35.91
2023-05-06T00:11:31.997Z,35.47
2023-05-06T00:13:58.410Z,35.58
2023-05-06T00:16:24.816Z,35.50
2023-05-06T00:18:51.261Z,35.60
2023-05-06T00:21:17.635Z,35.58
2023-05-06T00:23:44.136Z,35.85
2023-05-06T00:26:10.678Z,35.74
2023-05-06T00:28:37.113Z,35.51
2023-05-06T00:31:03.621Z,35.64
2023-05-06T00:33:30.457Z,35.87
2023-05-06T00:35:56.905Z,35.92
2023-05-06T00:38:23.336Z,35.89
2023-05-06T00:40:49.812Z,35.53
2023-05-06T00:43:16.202Z,35.65
2023-05-06T00:45:42.843Z,35.59
2023-05-06T00:48:09.650Z,35.63
2023-05-06T00:50:36.106Z,35.65
2023-05-06T00:53:03.360Z,35.60
2023-05-06T00:55:30.279Z,35.54
2023-05-06T00:57:57.094Z,35.58
2023-05-06T01:00:23.604Z,35.58
2023-05-06T01:02:51.140Z,35.84
2023-05-06T01:05:17.954Z,35.64
2023-05-06T01:07:50.660Z,35.47
2023-05-06T01:10:20.561Z,35.60
2023-05-06T01:12:47.224Z,35.68
2023-05-06T01:15:26.150Z,35.53
2023-05-06T01:17:53.127Z,35.50
2023-05-06T01:20:21.249Z,35.42
2023-05-06T01:22:47.692Z,35.72
2023-05-06T01:25:18.109Z,35.77
2023-05-06T01:27:44.583Z,35.71
2023-05-06T01:30:11.267Z,35.59
2023-05-06T01:32:55.695Z,35.56
2023-05-06T01:35:24.973Z,36.03
2023-05-06T01:37:55.649Z,35.56
2023-05-06T01:40:22.226Z,35.75
2023-05-06T01:42:51.514Z,35.60
2023-05-06T01:45:18.145Z,35.67
2023-05-06T01:47:44.962Z,35.78
2023-05-06T01:50:11.511Z,35.81
2023-05-06T01:52:37.898Z,35.75
2023-05-06T01:55:04.517Z,35.85
2023-05-06T01:57:31.021Z,35.88
2023-05-06T01:59:57.541Z,35.56
2023-05-06T02:02:24.314Z,35.61
2023-05-06T02:04:52.388Z,35.67
2023-05-06T02:07:19.380Z,35.66
2023-05-06T02:09:45.800Z,35.57
2023-05-06T02:12:12.442Z,35.67
2023-05-06T02:14:38.823Z,35.70
2023-05-06T02:17:05.999Z,35.47
2023-05-06T02:19:32.497Z,35.74
2023-05-06T02:21:59.068Z,35.58
2023-05-06T02:24:26.717Z,35.69
2023-05-06T02:26:53.161Z,35.60
2023-05-06T02:29:19.607Z,35.96
2023-05-06T02:31:46.155Z,35.51
2023-05-06T02:34:12.607Z,35.76
2023-05-06T02:36:39.077Z,35.93
2023-05-06T02:39:05.561Z,35.75
2023-05-06T02:41:31.971Z,35.73
2023-05-06T02:43:58.347Z,35.72
2023-05-06T02:46:24.913Z,35.75
2023-05-06T02:48:51.818Z,35.81
2023-05-06T02:51:18.232Z,35.58
2023-05-06T02:53:44.773Z,35.59
2023-05-06T02:56:11.173Z,35.88
2023-05-06T02:58:37.605Z,35.77
2023-05-06T03:01:04.108Z,35.77
2023-05-06T03:03:30.559Z,35.70
2023-05-06T03:05:57.018Z,35.61
2023-05-06T03:08:23.512Z,35.70
2023-05-06T03:10:50.826Z,35.67
2023-05-06T03:13:19.362Z,35.61
2023-05-06T03:15:50.839Z,35.85
2023-05-06T03:18:17.631Z,35.85
2023-05-06T03:20:44.042Z,35.88
2023-05-06T03:23:11.189Z,35.79
2023-05-06T03:25:37.690Z,35.56
2023-05-06T03:28:05.193Z,35.55
2023-05-06T03:30:32.544Z,35.77
2023-05-06T03:33:02.314Z,35.61
2023-05-06T03:35:32.106Z,35.75
2023-05-06T03:38:00.344Z,35.63
2023-05-06T03:40:33.759Z,35.55
2023-05-06T03:43:00.425Z,35.88
2023-05-06T03:45:27.218Z,35.81
2023-05-06T03:47:57.188Z,35.45
2023-05-06T03:50:25.122Z,35.94
2023-05-06T03:52:53.273Z,35.69
2023-05-06T03:55:21.500Z,35.62
2023-05-06T03:57:48.098Z,35.59
2023-05-06T04:00:14.807Z,35.62
2023-05-06T04:02:45.619Z,35.53
2023-05-06T04:05:19.764Z,35.84
2023-05-06T04:07:46.244Z,35.57
2023-05-06T04:10:12.949Z,35.87
2023-05-06T04:12:41.842Z,35.56
2023-05-06T04:15:10.459Z,35.74
2023-05-06T04:17:37.465Z,35.84
2023-05-06T04:20:06.842Z,35.82
2023-05-06T04:22:33.376Z,35.56
2023-05-06T04:25:02.895Z,35.82
2023-05-06T04:27:32.022Z,35.45
2023-05-06T04:29:59.866Z,35.52
2023-05-06T04:32:28.848Z,35.65
2023-05-06T04:34:56.775Z,35.57
2023-05-06T04:37:24.627Z,35.51
2023-05-06T04:39:57.187Z,35.72
2023-05-06T04:42:23.705Z,35.71
2023-05-06T04:45:00.727Z,35.52
2023-05-06T04:47:30.842Z,35.86
2023-05-06T04:49:57.476Z,35.73
2023-05-06T04:52:24.578Z,35.80
2023-05-06T04:54:51.212Z,35.61
2023-05-06T04:57:21.673Z,35.56
2023-05-06T04:59:48.579Z,35.80
2023-05-06T05:02:15.465Z,35.68
2023-05-06T05:04:43.218Z,35.50
2023-05-06T05:07:09.695Z,35.47
2023-05-06T05:09:36.261Z,35.62
2023-05-06T05:12:03.247Z,35.79
2023-05-06T05:14:33.030Z,35.68
2023-05-06T05:17:00.083Z,35.78
2023-05-06T05:19:26.683Z,35.72
2023-05-06T05:21:54.953Z,35.80
2023-05-06T05:24:23.081Z,35.71
2023-05-06T05:26:49.547Z,36.01
2023-05-06T05:29:16.998Z,35.87
2023-05-06T05:31:44.313Z,35.81
2023-05-06T05:34:12.024Z,35.68
2023-05-06T05:36:38.532Z,35.40
2023-05-06T05:39:07.470Z,35.25
2023-05-06T05:41:37.755Z,35.75
2023-05-06T05:44:04.598Z,35.89
2023-05-06T05:46:31.338Z,35.83
2023-05-06T05:48:57.963Z,35.82
2023-05-06T05:51:25.359Z,35.66
2023-05-06T05:53:53.368Z,35.67
2023-05-06T05:56:21.705Z,35.63
2023-05-06T05:58:49.005Z,35.67
2023-05-06T06:01:15.819Z,35.50
2023-05-06T06:03:42.488Z,36.26
2023-05-06T06:06:09.462Z,36.59
2023-05-06T06:08:36.622Z,36.14
2023-05-06T06:11:04.501Z,36.61
2023-05-06T06:13:36.248Z,36.63
2023-05-06T06:16:03.213Z,36.74
2023-05-06T06:18:29.913Z,36.49
2023-05-06T06:20:56.910Z,36.99
2023-05-06T06:23:24.406Z,36.76
2023-05-06T06:25:50.877Z,36.78
2023-05-06T06:28:17.392Z,37.30
2023-05-06T06:30:45.149Z,37.32
2023-05-06T06:33:11.851Z,37.10
2023-05-06T06:35:39.639Z,37.28
2023-05-06T06:38:06.108Z,37.27
2023-05-06T06:40:32.586Z,37.36
2023-05-06T06:42:59.145Z,37.21
2023-05-06T06:45:51.604Z,37.64
2023-05-06T06:48:18.541Z,37.42
2023-05-06T06:50:45.132Z,37.30
2023-05-06T06:53:11.604Z,37.17
2023-05-06T06:55:38.029Z,36.84
2023-05-06T06:58:04.500Z,36.95
2023-05-06T07:00:30.931Z,36.47
2023-05-06T07:02:57.316Z,36.46
2023-05-06T07:05:23.817Z,36.41
2023-05-06T07:07:50.330Z,36.63
2023-05-06T07:10:16.851Z,36.50
2023-05-06T07:12:43.351Z,36.25
2023-05-06T07:15:10.250Z,36.30
2023-05-06T07:17:36.992Z,36.42
2023-05-06T07:20:03.672Z,36.32
2023-05-06T07:22:30.200Z,36.39
2023-05-06T07:24:56.722Z,36.24
2023-05-06T07:27:24.318Z,36.15
2023-05-06T07:29:50.854Z,36.34
2023-05-06T07:32:17.462Z,36.25
2023-05-06T07:34:43.930Z,36.33
2023-05-06T07:37:10.501Z,36.42
2023-05-06T07:39:37.026Z,36.44
2023-05-06T07:42:03.675Z,36.35
2023-05-06T07:44:30.193Z,36.88
2023-05-06T07:46:56.887Z,37.30
2023-05-06T07:49:24.068Z,36.64
2023-05-06T07:51:50.537Z,36.69
2023-05-06T07:54:16.969Z,36.36
2023-05-06T07:56:44.043Z,36.16
2023-05-06T07:59:10.535Z,36.57
2023-05-06T08:01:37.049Z,36.54
2023-05-06T08:04:03.736Z,36.62
2023-05-06T08:06:30.466Z,36.63
2023-05-06T08:08:56.938Z,36.38
2023-05-06T08:11:23.699Z,36.38
2023-05-06T08:13:50.334Z,36.09
2023-05-06T08:16:16.873Z,36.12
2023-05-06T08:18:43.431Z,36.40
2023-05-06T08:21:09.928Z,35.99
2023-05-06T08:23:36.462Z,35.97
2023-05-06T08:26:02.901Z,35.48
2023-05-06T08:28:29.437Z,35.45
2023-05-06T08:30:56.074Z,35.33
2023-05-06T08:33:22.538Z,34.87
2023-05-06T08:35:51.777Z,35.16
2023-05-06T08:38:18.501Z,35.13
2023-05-06T08:40:45.054Z,34.88
2023-05-06T08:43:14.699Z,35.12
2023-05-06T08:45:41.849Z,35.07
2023-05-06T08:48:08.763Z,35.15
2023-05-06T08:50:35.574Z,34.94
2023-05-06T08:53:02.072Z,35.14
2023-05-06T08:55:28.718Z,35.05
2023-05-06T08:57:55.207Z,34.80
2023-05-06T09:00:21.885Z,35.01
2023-05-06T09:02:48.537Z,34.71
2023-05-06T09:05:16.348Z,34.51
2023-05-06T09:07:42.846Z,34.79
2023-05-06T09:10:12.764Z,34.79
2023-05-06T09:12:39.337Z,35.41
2023-05-06T09:15:06.247Z,35.27
2023-05-06T09:17:33.007Z,35.08
2023-05-06T09:19:59.649Z,35.81
2023-05-06T09:22:26.608Z,35.61
2023-05-06T09:24:57.056Z,35.31
2023-05-06T09:27:23.649Z,36.35
2023-05-06T09:30:11.830Z,35.46
2023-05-06T09:32:40.244Z,35.13
2023-05-06T09:35:07.904Z,34.37
2023-05-06T09:37:34.634Z,34.51
2023-05-06T09:40:01.265Z,34.73
2023-05-06T09:42:28.671Z,35.14
2023-05-06T09:44:58.151Z,34.82
2023-05-06T09:49:23.454Z,36.78
2023-05-06T09:51:51.690Z,35.22
2023-05-06T09:54:18.388Z,35.90
2023-05-06T09:56:45.625Z,35.14
2023-05-06T09:59:12.269Z,34.42
2023-05-06T10:01:38.905Z,34.69
2023-05-06T10:04:06.780Z,34.45
2023-05-06T10:06:35.631Z,34.27
2023-05-06T10:09:02.466Z,34.14
2023-05-06T10:11:31.120Z,37.18
2023-05-06T10:13:57.957Z,35.61
2023-05-06T10:16:24.657Z,35.57
2023-05-06T10:18:51.953Z,34.81
2023-05-06T10:21:22.098Z,34.83
2023-05-06T10:23:52.292Z,34.63
2023-05-06T10:26:19.772Z,34.69
2023-05-06T10:28:46.768Z,34.63
2023-05-06T10:31:16.826Z,34.69
2023-05-06T10:33:46.079Z,34.04
2023-05-06T10:36:20.313Z,34.10
2023-05-06T10:38:50.423Z,34.19
2023-05-06T10:41:17.043Z,34.17
2023-05-06T10:43:43.801Z,33.28
2023-05-06T10:46:15.095Z,33.10
2023-05-06T10:49:08.512Z,32.56
2023-05-06T10:51:38.970Z,32.64
2023-05-06T10:54:08.285Z,32.49
2023-05-06T10:56:38.756Z,31.40
2023-05-06T10:59:10.101Z,31.90
2023-05-06T11:01:40.256Z,31.71
2023-05-06T11:04:14.119Z,31.78
2023-05-06T11:06:42.336Z,31.99
2023-05-06T11:09:26.776Z,31.58
2023-05-06T11:12:08.671Z,32.16
2023-05-06T11:14:38.218Z,31.78
2023-05-06T11:17:09.289Z,32.13
2023-05-06T11:19:37.382Z,31.98
2023-05-06T11:22:05.000Z,31.82
2023-05-06T11:24:38.284Z,31.79
2023-05-06T11:27:05.607Z,31.64
2023-05-06T11:29:32.274Z,31.75
2023-05-06T11:31:59.086Z,32.19
2023-05-06T11:34:30.162Z,32.07
2023-05-06T11:36:58.878Z,32.19
2023-05-06T11:39:30.531Z,32.07
2023-05-06T11:42:02.845Z,32.20
2023-05-06T11:44:31.105Z,31.99
2023-05-06T11:46:59.004Z,32.25
2023-05-06T11:49:26.908Z,32.52
2023-05-06T11:51:54.793Z,32.37
2023-05-06T11:54:22.826Z,32.60
2023-05-06T11:56:51.379Z,32.12
2023-05-06T11:59:18.893Z,32.02
2023-05-06T12:01:46.077Z,32.35
2023-05-06T12:04:13.175Z,32.14
2023-05-06T12:06:40.144Z,32.26
2023-05-06T12:09:08.730Z,32.15
2023-05-06T12:11:35.539Z,32.10
2023-05-06T12:14:03.328Z,32.13
2023-05-06T12:16:30.009Z,32.16
2023-05-06T12:18:56.695Z,31.99
2023-05-06T12:21:24.056Z,31.58
2023-05-06T12:23:53.924Z,32.10
2023-05-06T12:26:22.872Z,31.65
2023-05-06T12:29:09.631Z,31.89
2023-05-06T12:31:36.339Z,31.63
2023-05-06T12:34:03.831Z,31.75
2023-05-06T12:36:30.678Z,31.32
2023-05-06T12:39:01.065Z,31.69
2023-05-06T12:41:44.190Z,31.32
2023-05-06T12:44:52.172Z,31.36
2023-05-06T12:47:20.773Z,31.34
2023-05-06T12:49:51.490Z,31.09
2023-05-06T12:52:19.460Z,31.29
2023-05-06T12:54:46.234Z,31.21
2023-05-06T12:57:13.118Z,30.83
2023-05-06T12:59:39.779Z,31.33
2023-05-06T13:02:06.632Z,31.41
2023-05-06T13:04:33.243Z,31.23
2023-05-06T13:07:02.450Z,31.09
2023-05-06T13:09:29.165Z,30.85
2023-05-06T13:11:55.820Z,31.25
2023-05-06T13:14:22.958Z,30.97
2023-05-06T13:16:49.703Z,31.25
2023-05-06T13:19:31.625Z,31.04
2023-05-06T13:22:00.585Z,30.81
2023-05-06T13:24:27.547Z,30.85
2023-05-06T13:26:56.001Z,30.56
2023-05-06T13:29:23.462Z,30.71
2023-05-06T13:31:50.255Z,31.05
2023-05-06T13:34:16.989Z,31.07
2023-05-06T13:36:43.882Z,29.52
2023-05-06T13:39:10.590Z,30.05
2023-05-06T13:41:37.259Z,29.94
2023-05-06T13:44:04.074Z,30.20
2023-05-06T13:46:31.365Z,29.94
2023-05-06T13:48:58.128Z,30.58
2023-05-06T13:51:29.171Z,30.26
2023-05-06T13:53:55.914Z,30.71
2023-05-06T13:56:22.567Z,30.34
2023-05-06T13:58:49.235Z,30.39
2023-05-06T14:01:15.870Z,30.53
2023-05-06T14:03:42.605Z,30.42
2023-05-06T14:06:09.240Z,30.62
2023-05-06T14:08:35.899Z,30.25
2023-05-06T14:11:02.555Z,30.21
2023-05-06T14:13:30.782Z,30.37
2023-05-06T14:15:57.597Z,30.32
2023-05-06T14:18:26.572Z,30.29
2023-05-06T14:20:53.765Z,29.92
2023-05-06T14:23:20.621Z,29.83
2023-05-06T14:25:47.281Z,30.18
2023-05-06T14:28:15.612Z,30.02
2023-05-06T14:30:42.541Z,29.69
2023-05-06T14:33:09.548Z,29.44
2023-05-06T14:35:36.245Z,29.56
2023-05-06T14:38:03.194Z,29.92
2023-05-06T14:40:30.268Z,29.09
2023-05-06T14:42:56.932Z,29.03
2023-05-06T14:45:23.570Z,28.61
2023-05-06T14:47:51.515Z,29.39
2023-05-06T14:50:18.609Z,29.33
2023-05-06T14:52:45.434Z,29.43
2023-05-06T14:55:12.491Z,29.39
2023-05-06T14:57:39.339Z,29.58
2023-05-06T15:00:09.999Z,30.13
2023-05-06T15:02:38.069Z,29.89
2023-05-06T15:05:05.102Z,30.48
2023-05-06T15:07:31.794Z,30.26
2023-05-06T15:09:58.463Z,30.21
2023-05-06T15:12:25.277Z,30.51
2023-05-06T15:14:51.937Z,30.46
2023-05-06T15:17:18.562Z,30.55
2023-05-06T15:19:45.800Z,30.86
2023-05-06T15:22:12.445Z,30.72
2023-05-06T15:24:39.104Z,31.21
2023-05-06T15:27:06.058Z,30.79
2023-05-06T15:29:32.758Z,31.36
2023-05-06T15:31:59.354Z,31.59
2023-05-06T15:34:25.995Z,31.18
2023-05-06T15:36:53.142Z,31.12
2023-05-06T15:39:19.938Z,31.31
2023-05-06T15:41:46.740Z,31.49
2023-05-06T15:46:42.645Z,31.68
2023-05-06T15:49:33.663Z,31.56
2023-05-06T15:51:59.044Z,31.42
2023-05-06T15:54:27.274Z,31.53
2023-05-06T15:56:54.025Z,32.08
2023-05-06T15:59:20.609Z,31.74
2023-05-06T16:04:17.172Z,31.80
2023-05-06T16:06:43.948Z,31.88
2023-05-06T16:09:10.606Z,31.94
2023-05-06T16:11:37.235Z,32.36
2023-05-06T16:14:03.943Z,32.09
2023-05-06T16:16:30.713Z,32.43
2023-05-06T16:18:57.480Z,32.70
2023-05-06T16:21:24.140Z,31.81
2023-05-06T16:23:50.837Z,31.90
2023-05-06T16:26:17.764Z,31.59
2023-05-06T16:28:44.551Z,31.79
2023-05-06T16:31:11.238Z,32.21
2023-05-06T16:33:37.984Z,32.29
2023-05-06T16:36:04.851Z,32.27
2023-05-06T16:38:31.543Z,32.28
2023-05-06T16:40:58.253Z,32.17
2023-05-06T16:43:24.884Z,32.79
2023-05-06T16:45:51.489Z,32.72
2023-05-06T16:48:18.210Z,32.82
2023-05-06T16:50:45.071Z,32.87
2023-05-06T16:53:11.694Z,32.85
2023-05-06T16:55:38.303Z,32.34
2023-05-06T16:58:04.992Z,32.49
2023-05-06T17:00:32.037Z,32.78
2023-05-06T17:02:58.881Z,32.67
2023-05-06T17:05:25.814Z,33.01
2023-05-06T17:07:52.566Z,33.02
2023-05-06T17:10:19.324Z,32.67
2023-05-06T17:12:45.946Z,32.50
2023-05-06T17:15:12.652Z,32.87
2023-05-06T17:17:39.913Z,32.70
2023-05-06T17:20:07.404Z,32.94
2023-05-06T17:22:34.098Z,33.26
2023-05-06T17:25:00.791Z,32.93
2023-05-06T17:27:27.537Z,33.32
2023-05-06T17:29:54.287Z,32.92
2023-05-06T17:32:21.051Z,33.09
2023-05-06T17:34:47.711Z,33.47
2023-05-06T17:37:14.348Z,33.46
2023-05-06T17:39:40.980Z,33.31
2023-05-06T17:42:08.417Z,33.31
2023-05-06T17:44:35.838Z,33.59
2023-05-06T17:47:02.448Z,33.63
2023-05-06T17:49:29.138Z,33.19
2023-05-06T17:51:57.309Z,33.75
2023-05-06T17:54:25.347Z,33.61
2023-05-06T17:56:52.940Z,34.25
2023-05-06T17:59:19.784Z,34.46
2023-05-06T18:01:46.521Z,34.09
2023-05-06T18:04:13.590Z,34.38
2023-05-06T18:06:41.563Z,33.99
2023-05-06T18:09:08.607Z,34.09
2023-05-06T18:11:35.389Z,34.34
2023-05-06T18:14:02.024Z,34.20
2023-05-06T18:16:28.814Z,34.03
2023-05-06T18:18:55.448Z,34.57
2023-05-06T18:21:22.411Z,34.15
2023-05-06T18:23:51.405Z,34.19
2023-05-06T18:26:39.524Z,33.73
2023-05-06T18:29:07.033Z,34.06
2023-05-06T18:31:33.745Z,33.92
2023-05-06T18:34:00.454Z,34.18
2023-05-06T18:36:27.123Z,34.13
2023-05-06T18:38:53.746Z,34.25
2023-05-06T18:41:21.034Z,34.29
2023-05-06T18:43:47.659Z,34.02
2023-05-06T18:46:14.358Z,34.01
2023-05-06T18:48:41.099Z,34.15
2023-05-06T18:51:15.691Z,33.93
2023-05-06T18:53:42.633Z,34.59
2023-05-06T18:56:09.428Z,34.54
2023-05-06T18:58:39.654Z,34.47
2023-05-06T19:01:07.154Z,34.15
2023-05-06T19:03:37.397Z,34.03
2023-05-06T19:06:05.077Z,34.49
2023-05-06T19:08:32.248Z,34.41
2023-05-06T19:10:59.265Z,34.39
2023-05-06T19:13:26.073Z,34.11
2023-05-06T19:15:52.757Z,34.06
2023-05-06T19:18:19.462Z,34.06
2023-05-06T19:20:46.341Z,34.38
2023-05-06T19:23:12.983Z,34.45
2023-05-06T19:25:39.768Z,34.12
2023-05-06T19:28:06.516Z,33.77
2023-05-06T19:30:34.209Z,34.02
2023-05-06T19:33:00.981Z,34.21
2023-05-06T19:35:27.869Z,34.19
2023-05-06T19:37:54.460Z,34.39
2023-05-06T19:40:21.954Z,34.71
2023-05-06T19:42:48.668Z,34.61
2023-05-06T19:45:16.769Z,34.54
2023-05-06T19:47:45.774Z,34.48
2023-05-06T19:50:14.431Z,34.62
2023-05-06T19:52:41.734Z,34.82
2023-05-06T19:55:09.612Z,34.86
2023-05-06T19:57:37.447Z,34.62
2023-05-06T20:00:09.782Z,35.06
2023-05-06T20:02:37.598Z,34.33
2023-05-06T20:05:06.314Z,34.56
2023-05-06T20:07:33.617Z,34.47
2023-05-06T20:10:00.477Z,34.57
2023-05-06T20:12:30.527Z,34.42
2023-05-06T20:14:57.195Z,34.44
2023-05-06T20:17:24.762Z,34.94
2023-05-06T20:19:52.649Z,34.82
2023-05-06T20:22:19.413Z,34.80
2023-05-06T20:24:46.511Z,35.20
2023-05-06T20:27:13.166Z,35.25
2023-05-06T20:29:39.981Z,34.81
2023-05-06T20:32:06.632Z,35.29
2023-05-06T20:34:33.475Z,34.98
2023-05-06T20:37:00.587Z,34.93
2023-05-06T20:39:27.326Z,35.39
2023-05-06T20:41:54.008Z,35.26
2023-05-06T20:44:20.835Z,35.19
2023-05-06T20:46:47.489Z,35.52
2023-05-06T20:49:14.208Z,35.56
2023-05-06T20:51:43.519Z,35.46
2023-05-06T20:54:10.319Z,35.41
2023-05-06T20:56:37.044Z,35.91
2023-05-06T20:59:03.716Z,35.84
2023-05-06T21:01:30.449Z,35.59
2023-05-06T21:04:01.575Z,35.82
2023-05-06T21:06:28.256Z,35.58
2023-05-06T21:09:00.919Z,36.02
2023-05-06T21:11:28.886Z,35.67
2023-05-06T21:13:55.740Z,35.61
2023-05-06T21:16:28.569Z,35.57
2023-05-06T21:18:54.996Z,35.41
2023-05-06T21:21:23.617Z,35.98
2023-05-06T21:23:50.648Z,35.89
2023-05-06T21:26:17.738Z,35.60
2023-05-06T21:28:51.095Z,35.80
2023-05-06T21:31:21.503Z,35.94
2023-05-06T21:33:54.024Z,35.90
2023-05-06T21:36:20.746Z,36.30
2023-05-06T21:38:48.586Z,36.31
2023-05-06T21:41:15.398Z,35.89
2023-05-06T21:43:42.399Z,36.26
2023-05-06T21:46:09.152Z,36.26
2023-05-06T21:48:35.841Z,36.15
2023-05-06T21:51:05.584Z,36.39
2023-05-06T21:53:32.252Z,35.98
2023-05-06T21:55:58.976Z,36.20
2023-05-06T21:58:25.622Z,36.30
2023-05-06T22:00:52.400Z,36.06
2023-05-06T22:03:21.831Z,36.44
2023-05-06T22:05:48.428Z,36.35
2023-05-06T22:08:17.197Z,36.10
2023-05-06T22:10:43.935Z,36.34
2023-05-06T22:13:10.924Z,36.49
2023-05-06T22:15:37.703Z,36.33
2023-05-06T22:18:04.464Z,36.03
2023-05-06T22:20:37.614Z,36.42
2023-05-06T22:23:04.296Z,36.27
2023-05-06T22:25:30.946Z,36.26
2023-05-06T22:27:57.660Z,36.48
2023-05-06T22:30:24.526Z,36.04
2023-05-06T22:35:17.828Z,36.10
2023-05-06T22:37:45.243Z,36.51
2023-05-06T22:40:12.316Z,36.45
2023-05-06T22:42:39.045Z,36.24
2023-05-06T22:45:06.623Z,36.08
2023-05-06T22:47:33.332Z,36.41
2023-05-06T22:49:59.990Z,36.23
2023-05-06T22:52:26.745Z,36.14
2023-05-06T22:54:53.910Z,36.62
2023-05-06T22:57:22.832Z,36.32
2023-05-06T22:59:49.510Z,36.42
2023-05-06T23:02:16.091Z,36.66
2023-05-06T23:04:42.768Z,36.74
2023-05-06T23:07:09.457Z,36.52
2023-05-06T23:09:36.042Z,36.79
2023-05-06T23:12:02.761Z,36.68
2023-05-06T23:14:29.306Z,36.28
2023-05-06T23:16:56.381Z,36.36
2023-05-06T23:19:23.080Z,36.27
2023-05-06T23:21:49.669Z,36.68
2023-05-06T23:24:16.290Z,36.38
2023-05-06T23:26:42.841Z,36.34
2023-05-06T23:29:09.384Z,36.25
2023-05-06T23:31:36.045Z,36.02
2023-05-06T23:34:02.961Z,36.23
2023-05-06T23:36:29.522Z,36.49
2023-05-06T23:38:56.397Z,36.36
2023-05-06T23:41:23.593Z,36.13
2023-05-06T23:43:50.268Z,36.42
2023-05-06T23:46:16.933Z,36.69
2023-05-06T23:48:43.520Z,36.29
2023-05-06T23:51:10.155Z,36.03
2023-05-06T23:53:37.107Z,36.02
2023-05-06T23:56:04.014Z,36.24
2023-05-06T23:58:30.658Z,36.22
